createdAt,value
2023-03-20T00:02:00.451Z,1.25
2023-03-20T00:04:27.306Z,2.15
2023-03-20T00:06:54.082Z,2.80
2023-03-20T00:09:20.834Z,2.15
2023-03-20T00:11:50.174Z,1.40
2023-03-20T00:14:20.123Z,3.45
2023-03-20T00:16:48.423Z,0.50
2023-03-20T00:19:20.876Z,2.78
2023-03-20T00:21:48.092Z,2.50
2023-03-20T00:24:16.173Z,0.80
2023-03-20T00:26:44.660Z,1.08
2023-03-20T00:29:21.790Z,2.08
2023-03-20T00:31:49.221Z,0.77
2023-03-20T00:34:19.413Z,2.33
2023-03-20T00:36:46.986Z,3.53
2023-03-20T00:39:13.821Z,1.20
2023-03-20T00:41:50.239Z,2.60
2023-03-20T00:44:34.725Z,2.00
2023-03-20T00:47:17.251Z,0.55
2023-03-20T00:49:45.890Z,1.63
2023-03-20T00:52:15.654Z,1.60
2023-03-20T00:54:42.444Z,1.73
2023-03-20T00:57:14.635Z,0.55
2023-03-20T01:00:05.383Z,3.05
2023-03-20T01:02:32.827Z,2.72
2023-03-20T01:05:00.180Z,1.10
2023-03-20T01:07:27.844Z,1.00
2023-03-20T01:09:54.719Z,1.85
2023-03-20T01:12:21.641Z,2.80
2023-03-20T01:14:57.387Z,1.50
2023-03-20T01:17:26.394Z,0.30
2023-03-20T01:19:53.548Z,0.70
2023-03-20T01:22:20.748Z,1.15
2023-03-20T01:24:47.710Z,1.45
2023-03-20T01:27:19.985Z,0.20
2023-03-20T01:29:46.978Z,0.20
2023-03-20T01:32:16.806Z,2.58
2023-03-20T01:34:43.566Z,1.63
2023-03-20T01:37:14.744Z,1.45
2023-03-20T01:39:41.549Z,0.20
2023-03-20T01:42:08.375Z,1.02
2023-03-20T01:44:36.377Z,1.25
2023-03-20T01:47:11.730Z,2.00
2023-03-20T01:50:16.634Z,1.20
2023-03-20T01:52:43.470Z,0.38
2023-03-20T01:55:10.518Z,0.47
2023-03-20T01:57:38.235Z,0.70
2023-03-20T02:00:12.052Z,3.30
2023-03-20T02:02:40.521Z,0.45
2023-03-20T02:05:10.785Z,0.80
2023-03-20T02:07:39.438Z,2.30
2023-03-20T02:10:11.403Z,0.32
2023-03-20T02:12:39.694Z,1.38
2023-03-20T02:15:07.666Z,1.10
2023-03-20T02:17:34.737Z,1.13
2023-03-20T02:20:20.988Z,1.30
2023-03-20T02:22:59.592Z,2.38
2023-03-20T02:25:57.604Z,2.15
2023-03-20T02:28:43.024Z,0.90
2023-03-20T02:31:24.082Z,0.28
2023-03-20T02:34:19.466Z,1.75
2023-03-20T02:36:46.741Z,0.57
2023-03-20T02:39:38.742Z,2.15
2023-03-20T02:42:28.959Z,1.42
2023-03-20T02:45:14.211Z,0.57
2023-03-20T02:48:03.053Z,0.15
2023-03-20T02:50:59.011Z,0.30
2023-03-20T02:53:51.690Z,0.82
2023-03-20T02:56:18.632Z,0.32
2023-03-20T02:58:51.320Z,0.40
2023-03-20T03:01:25.158Z,0.95
2023-03-20T03:04:03.856Z,1.70
2023-03-20T03:06:34.686Z,0.70
2023-03-20T03:09:18.906Z,1.70
2023-03-20T03:11:50.736Z,1.80
2023-03-20T03:14:34.851Z,0.22
2023-03-20T03:17:04.578Z,0.20
2023-03-20T03:19:33.789Z,2.38
2023-03-20T03:22:00.783Z,0.20
2023-03-20T03:24:40.218Z,0.20
2023-03-20T03:27:38.722Z,0.52
2023-03-20T03:30:28.155Z,0.55
2023-03-20T03:33:07.285Z,0.82
2023-03-20T03:35:34.560Z,0.20
2023-03-20T03:38:22.657Z,0.10
2023-03-20T03:40:55.027Z,0.10
2023-03-20T03:43:33.402Z,0.17
2023-03-20T03:46:18.868Z,0.13
2023-03-20T03:48:52.742Z,0.10
2023-03-20T03:51:26.393Z,0.80
2023-03-20T03:54:02.573Z,0.10
2023-03-20T03:56:33.309Z,0.20
2023-03-20T03:59:05.311Z,0.10
2023-03-20T04:01:35.909Z,0.75
2023-03-20T04:04:07.316Z,0.20
2023-03-20T04:06:34.176Z,0.20
2023-03-20T04:09:01.532Z,0.85
2023-03-20T04:11:31.122Z,2.28
2023-03-20T04:13:57.869Z,1.48
2023-03-20T04:16:25.003Z,0.20
2023-03-20T04:18:52.753Z,0.20
2023-03-20T04:21:20.062Z,0.30
2023-03-20T04:23:46.939Z,0.68
2023-03-20T04:26:13.865Z,0.20
2023-03-20T04:28:40.794Z,0.50
2023-03-20T04:31:07.819Z,0.40
2023-03-20T04:33:34.658Z,0.20
2023-03-20T04:36:01.478Z,0.20
2023-03-20T04:38:28.278Z,0.75
2023-03-20T04:40:55.025Z,0.55
2023-03-20T04:43:21.812Z,0.47
2023-03-20T04:45:48.664Z,0.47
2023-03-20T04:48:15.457Z,0.10
2023-03-20T04:50:42.456Z,0.10
2023-03-20T04:53:09.261Z,0.10
2023-03-20T04:55:36.296Z,0.47
2023-03-20T04:58:03.167Z,0.57
2023-03-20T05:00:29.962Z,0.10
2023-03-20T05:02:56.737Z,0.10
2023-03-20T05:05:23.833Z,0.47
2023-03-20T05:07:52.555Z,0.10
2023-03-20T05:10:19.428Z,0.73
2023-03-20T05:12:46.873Z,0.00
2023-03-20T05:15:14.021Z,0.20
2023-03-20T05:17:41.107Z,0.30
2023-03-20T05:20:08.749Z,0.10
2023-03-20T05:22:35.458Z,0.10
2023-03-20T05:25:02.231Z,0.98
2023-03-20T05:27:28.999Z,0.10
2023-03-20T05:29:55.890Z,0.20
2023-03-20T05:32:22.624Z,0.10
2023-03-20T05:34:49.300Z,0.80
2023-03-20T05:37:16.056Z,0.10
2023-03-20T05:39:42.855Z,0.88
2023-03-20T05:42:09.586Z,0.10
2023-03-20T05:44:36.501Z,0.10
2023-03-20T05:47:03.257Z,0.10
2023-03-20T05:49:30.149Z,0.10
2023-03-20T05:51:57.179Z,0.13
2023-03-20T05:54:23.899Z,1.08
2023-03-20T05:56:50.760Z,0.30
2023-03-20T05:59:17.579Z,0.10
2023-03-20T06:01:44.282Z,2.25
2023-03-20T06:04:10.996Z,0.30
2023-03-20T06:06:38.186Z,0.10
2023-03-20T06:09:05.776Z,0.10
2023-03-20T06:11:33.646Z,0.50
2023-03-20T06:14:01.910Z,0.50
2023-03-20T06:16:28.730Z,0.75
2023-03-20T06:18:55.587Z,0.63
2023-03-20T06:21:22.350Z,0.10
2023-03-20T06:23:49.144Z,0.25
2023-03-20T06:26:15.942Z,0.17
2023-03-20T06:28:43.005Z,0.30
2023-03-20T06:31:10.141Z,0.93
2023-03-20T06:33:38.211Z,0.57
2023-03-20T06:36:05.501Z,0.32
2023-03-20T06:38:32.458Z,0.15
2023-03-20T06:40:59.200Z,0.10
2023-03-20T06:43:25.984Z,0.40
2023-03-20T06:45:52.931Z,1.45
2023-03-20T06:48:22.233Z,0.47
2023-03-20T06:50:53.172Z,0.35
2023-03-20T06:53:20.277Z,2.08
2023-03-20T06:55:48.751Z,1.13
2023-03-20T06:58:15.765Z,0.22
2023-03-20T07:00:42.683Z,0.40
2023-03-20T07:03:10.254Z,2.38
2023-03-20T07:05:38.824Z,0.17
2023-03-20T07:08:07.455Z,0.32
2023-03-20T07:10:35.272Z,1.30
2023-03-20T07:13:02.060Z,0.55
2023-03-20T07:15:30.226Z,0.30
2023-03-20T07:17:57.604Z,0.75
2023-03-20T07:20:24.451Z,3.65
2023-03-20T07:22:51.393Z,2.03
2023-03-20T07:25:20.579Z,0.13
2023-03-20T07:27:53.029Z,0.43
2023-03-20T07:30:20.013Z,0.85
2023-03-20T07:32:46.818Z,1.23
2023-03-20T07:35:13.715Z,1.42
2023-03-20T07:37:41.211Z,2.05
2023-03-20T07:40:08.982Z,1.85
2023-03-20T07:42:36.104Z,1.33
2023-03-20T07:45:03.054Z,0.80
2023-03-20T07:47:29.765Z,2.03
2023-03-20T07:49:56.628Z,3.10
2023-03-20T07:52:23.498Z,1.88
2023-03-20T07:54:50.236Z,1.95
2023-03-20T07:57:17.241Z,2.38
2023-03-20T07:59:44.524Z,2.05
2023-03-20T08:02:16.174Z,1.70
2023-03-20T08:04:44.351Z,2.33
2023-03-20T08:07:11.758Z,1.33
2023-03-20T08:09:38.675Z,2.72
2023-03-20T08:12:06.534Z,1.65
2023-03-20T08:14:33.445Z,2.13
2023-03-20T08:17:13.958Z,3.85
2023-03-20T08:19:41.970Z,5.78
2023-03-20T08:22:08.707Z,5.38
2023-03-20T08:24:35.686Z,5.10
2023-03-20T08:27:02.448Z,5.60
2023-03-20T08:29:29.297Z,3.92
2023-03-20T08:31:56.482Z,9.30
2023-03-20T08:34:24.198Z,6.00
2023-03-20T08:36:52.527Z,6.43
2023-03-20T08:39:19.479Z,6.85
2023-03-20T08:41:46.414Z,6.00
2023-03-20T08:44:13.856Z,11.05
2023-03-20T08:46:40.693Z,9.68
2023-03-20T08:49:07.470Z,7.78
2023-03-20T08:51:34.306Z,6.15
2023-03-20T08:54:01.347Z,9.77
2023-03-20T08:56:28.188Z,2.60
2023-03-20T08:58:56.212Z,12.10
2023-03-20T09:01:23.224Z,9.45
2023-03-20T09:03:50.113Z,8.23
2023-03-20T09:06:16.998Z,5.82
2023-03-20T09:08:43.792Z,12.23
2023-03-20T09:11:10.554Z,7.53
2023-03-20T09:13:37.279Z,6.80
2023-03-20T09:16:04.579Z,9.50
2023-03-20T09:18:31.519Z,9.40
2023-03-20T09:20:58.335Z,6.53
2023-03-20T09:23:25.095Z,6.50
2023-03-20T09:25:52.008Z,9.18
2023-03-20T09:28:18.957Z,11.73
2023-03-20T09:30:45.960Z,9.73
2023-03-20T09:33:15.020Z,7.47
2023-03-20T09:35:43.679Z,7.82
2023-03-20T09:38:12.405Z,10.57
2023-03-20T09:40:45.137Z,4.18
2023-03-20T09:43:38.590Z,6.75
2023-03-20T09:46:30.074Z,6.85
2023-03-20T09:51:38.120Z,4.03
2023-03-20T09:54:27.297Z,4.65
2023-03-20T09:56:56.600Z,6.80
2023-03-20T09:59:26.034Z,7.63
2023-03-20T10:02:00.126Z,10.20
2023-03-20T10:04:29.550Z,10.20
2023-03-20T10:06:56.974Z,9.85
2023-03-20T10:09:28.922Z,6.82
2023-03-20T10:12:04.857Z,6.25
2023-03-20T10:15:17.745Z,5.82
2023-03-20T10:17:58.448Z,7.35
2023-03-20T10:20:38.128Z,7.45
2023-03-20T10:23:20.384Z,9.38
2023-03-20T10:25:52.431Z,6.50
2023-03-20T10:28:31.866Z,3.28
2023-03-20T10:31:13.102Z,7.00
2023-03-20T10:33:55.115Z,3.85
2023-03-20T10:36:42.625Z,4.80
2023-03-20T10:39:38.386Z,3.97
2023-03-20T10:42:15.489Z,5.25
2023-03-20T10:44:49.426Z,4.82
2023-03-20T10:47:22.595Z,4.82
2023-03-20T10:49:55.234Z,6.13
2023-03-20T10:52:32.439Z,9.43
2023-03-20T10:55:07.671Z,5.10
2023-03-20T10:57:42.143Z,3.40
2023-03-20T11:00:19.786Z,4.88
2023-03-20T11:02:46.928Z,3.70
2023-03-20T11:05:30.985Z,8.13
2023-03-20T11:08:16.506Z,3.85
2023-03-20T11:10:43.831Z,9.18
2023-03-20T11:13:30.292Z,5.65
2023-03-20T11:15:57.471Z,1.83
2023-03-20T11:18:25.763Z,4.18
2023-03-20T11:20:57.812Z,6.15
2023-03-20T11:23:28.202Z,3.05
2023-03-20T11:26:01.023Z,2.30
2023-03-20T11:28:38.366Z,3.15
2023-03-20T11:31:19.987Z,5.03
2023-03-20T11:34:09.931Z,7.22
2023-03-20T11:36:37.845Z,5.00
2023-03-20T11:39:10.521Z,5.95
2023-03-20T11:41:44.782Z,6.55
2023-03-20T11:44:32.932Z,2.58
2023-03-20T11:47:06.816Z,4.00
2023-03-20T11:49:47.900Z,7.85
2023-03-20T11:52:17.498Z,5.45
2023-03-20T11:54:54.825Z,4.45
2023-03-20T11:57:42.172Z,6.30
2023-03-20T12:00:11.959Z,5.50
2023-03-20T12:02:41.919Z,7.60
2023-03-20T12:05:30.659Z,2.88
2023-03-20T12:08:10.464Z,3.05
2023-03-20T12:10:42.548Z,2.85
2023-03-20T12:13:19.187Z,2.72
2023-03-20T12:15:51.088Z,4.95
2023-03-20T12:18:31.724Z,5.82
2023-03-20T12:21:05.779Z,5.73
2023-03-20T12:23:47.812Z,2.67
2023-03-20T12:26:17.393Z,4.35
2023-03-20T12:28:47.112Z,5.82
2023-03-20T12:31:50.295Z,4.38
2023-03-20T12:34:24.288Z,3.25
2023-03-20T12:36:57.591Z,4.60
2023-03-20T12:39:29.582Z,4.65
2023-03-20T12:42:02.538Z,4.63
2023-03-20T12:44:38.074Z,3.92
2023-03-20T12:47:15.163Z,5.55
2023-03-20T12:50:08.638Z,5.63
2023-03-20T12:52:53.761Z,2.75
2023-03-20T12:55:48.550Z,3.30
2023-03-20T12:58:18.623Z,6.32
2023-03-20T13:01:00.534Z,8.32
2023-03-20T13:03:48.563Z,6.75
2023-03-20T13:06:46.863Z,3.17
2023-03-20T13:09:28.548Z,1.70
2023-03-20T13:12:08.327Z,3.78
2023-03-20T13:14:59.979Z,3.00
2023-03-20T13:17:48.290Z,4.35
2023-03-20T13:20:30.395Z,6.03
2023-03-20T13:23:10.759Z,6.32
2023-03-20T13:26:01.828Z,1.70
2023-03-20T13:28:37.967Z,7.13
2023-03-20T13:31:23.929Z,4.65
2023-03-20T13:34:05.708Z,4.60
2023-03-20T13:36:54.285Z,4.60
2023-03-20T13:39:31.067Z,7.60
2023-03-20T13:42:00.823Z,4.55
2023-03-20T13:44:30.464Z,4.85
2023-03-20T13:47:05.827Z,4.35
2023-03-20T13:49:36.583Z,5.28
2023-03-20T13:52:15.863Z,6.93
2023-03-20T13:55:14.268Z,5.45
2023-03-20T13:58:07.300Z,5.03
2023-03-20T14:00:40.497Z,7.47
2023-03-20T14:03:19.742Z,3.03
2023-03-20T14:05:47.622Z,4.72
2023-03-20T14:08:38.657Z,6.85
2023-03-20T14:11:05.341Z,3.28
2023-03-20T14:13:33.090Z,4.68
2023-03-20T14:16:03.432Z,5.15
2023-03-20T14:18:31.348Z,4.15
2023-03-20T14:21:10.530Z,7.03
2023-03-20T14:23:38.923Z,6.45
2023-03-20T14:26:36.785Z,10.73
2023-03-20T14:29:09.657Z,6.30
2023-03-20T14:31:38.576Z,4.03
2023-03-20T14:34:11.933Z,2.63
2023-03-20T14:36:59.034Z,2.70
2023-03-20T14:39:55.019Z,3.67
2023-03-20T14:42:35.581Z,3.75
2023-03-20T14:45:02.282Z,5.80
2023-03-20T14:47:34.491Z,2.17
2023-03-20T14:50:01.175Z,1.77
2023-03-20T14:52:52.600Z,2.67
2023-03-20T14:57:59.121Z,4.70
2023-03-20T15:00:33.718Z,2.13
2023-03-20T15:03:10.489Z,3.97
2023-03-20T15:05:39.716Z,2.90
2023-03-20T15:08:29.029Z,3.55
2023-03-20T15:10:59.924Z,2.05
2023-03-20T15:13:28.149Z,4.13
2023-03-20T15:16:09.572Z,2.47
2023-03-20T15:21:16.418Z,3.97
2023-03-20T15:23:44.641Z,1.27
2023-03-20T15:26:16.253Z,2.80
2023-03-20T15:28:44.821Z,3.60
2023-03-20T15:31:27.695Z,2.47
2023-03-20T15:33:55.876Z,2.22
2023-03-20T15:36:37.078Z,1.52
2023-03-20T15:39:16.722Z,3.00
2023-03-20T15:41:51.288Z,1.02
2023-03-20T15:44:28.975Z,3.65
2023-03-20T15:47:01.901Z,1.50
2023-03-20T15:49:31.875Z,1.80
2023-03-20T15:52:03.232Z,0.57
2023-03-20T15:54:30.411Z,1.60
2023-03-20T15:57:01.107Z,1.00
2023-03-20T15:59:32.279Z,0.82
2023-03-20T16:02:01.069Z,0.60
2023-03-20T16:04:28.785Z,0.55
2023-03-20T16:06:58.254Z,0.55
2023-03-20T16:09:25.650Z,0.43
2023-03-20T16:12:00.992Z,0.82
2023-03-20T16:14:32.251Z,1.60
2023-03-20T16:19:29.113Z,0.85
2023-03-20T16:22:26.758Z,1.30
2023-03-20T16:24:58.213Z,1.45
2023-03-20T16:27:32.690Z,1.23
2023-03-20T16:30:03.955Z,3.50
2023-03-20T16:35:03.294Z,1.05
2023-03-20T16:37:37.224Z,1.23
2023-03-20T16:40:15.402Z,1.70
2023-03-20T16:42:42.699Z,0.73
2023-03-20T16:45:29.791Z,1.33
2023-03-20T16:48:16.676Z,0.40
2023-03-20T16:50:45.536Z,1.13
2023-03-20T16:53:15.894Z,0.50
2023-03-20T16:55:48.941Z,1.88
2023-03-20T16:58:22.529Z,0.70
2023-03-20T17:01:14.891Z,0.50
2023-03-20T17:03:44.512Z,0.80
2023-03-20T17:06:36.026Z,0.90
2023-03-20T17:11:48.696Z,1.67
2023-03-20T17:14:16.157Z,0.40
2023-03-20T17:16:44.258Z,0.50
2023-03-20T17:19:16.393Z,0.20
2023-03-20T17:21:44.702Z,0.20
2023-03-20T17:24:11.884Z,0.20
2023-03-20T17:26:39.985Z,0.20
2023-03-20T17:29:06.994Z,0.30
2023-03-20T17:31:33.806Z,0.20
2023-03-20T17:34:00.866Z,0.20
2023-03-20T17:36:31.170Z,0.20
2023-03-20T17:38:59.010Z,0.20
2023-03-20T17:41:26.251Z,0.20
2023-03-20T17:43:53.374Z,0.20
2023-03-20T17:46:30.310Z,0.20
2023-03-20T17:49:06.567Z,0.20
2023-03-20T17:51:33.598Z,0.20
2023-03-20T17:54:00.434Z,0.20
2023-03-20T17:56:30.263Z,0.30
2023-03-20T17:58:57.797Z,0.20
2023-03-20T18:01:25.524Z,0.30
2023-03-20T18:03:52.462Z,0.20
2023-03-20T18:06:24.892Z,0.20
2023-03-20T18:08:51.628Z,0.20
2023-03-20T18:11:18.399Z,0.20
2023-03-20T18:13:45.379Z,0.20
2023-03-20T18:16:21.258Z,0.20
2023-03-20T18:18:48.511Z,0.10
2023-03-20T18:21:16.888Z,0.10
2023-03-20T18:23:44.350Z,0.20
2023-03-20T18:26:22.609Z,0.20
2023-03-20T18:28:51.021Z,0.17
2023-03-20T18:31:21.184Z,0.20
2023-03-20T18:33:49.542Z,0.15
2023-03-20T18:36:21.349Z,0.30
2023-03-20T18:38:49.008Z,0.17
2023-03-20T18:41:15.820Z,0.20
2023-03-20T18:43:43.061Z,0.10
2023-03-20T18:46:18.600Z,0.20
2023-03-20T18:48:46.237Z,0.20
2023-03-20T18:51:13.840Z,0.20
2023-03-20T18:53:41.255Z,0.20
2023-03-20T18:56:15.965Z,0.13
2023-03-20T18:58:43.797Z,0.40
2023-03-20T19:01:13.058Z,0.10
2023-03-20T19:03:41.568Z,0.20
2023-03-20T19:06:19.191Z,0.10
2023-03-20T19:08:47.411Z,0.13
2023-03-20T19:11:21.077Z,0.10
2023-03-20T19:13:51.308Z,0.30
2023-03-20T19:16:32.051Z,0.10
2023-03-20T19:19:01.603Z,0.10
2023-03-20T19:21:30.001Z,0.20
2023-03-20T19:23:59.048Z,0.10
2023-03-20T19:26:28.391Z,0.15
2023-03-20T19:28:57.856Z,0.20
2023-03-20T19:31:26.051Z,1.58
2023-03-20T19:33:53.366Z,0.47
2023-03-20T19:36:28.092Z,0.13
2023-03-20T19:38:56.199Z,0.25
2023-03-20T19:41:23.519Z,0.10
2023-03-20T19:43:53.608Z,0.20
2023-03-20T19:46:38.800Z,0.10
2023-03-20T19:49:17.844Z,0.10
2023-03-20T19:51:45.251Z,0.10
2023-03-20T19:54:12.112Z,0.20
2023-03-20T19:56:38.970Z,1.35
2023-03-20T19:59:06.138Z,0.10
2023-03-20T20:01:32.984Z,3.03
2023-03-20T20:03:59.897Z,0.20
2023-03-20T20:06:32.253Z,0.17
2023-03-20T20:09:01.343Z,0.20
2023-03-20T20:11:28.374Z,0.20
2023-03-20T20:14:06.672Z,0.10
2023-03-20T20:16:40.146Z,0.35
2023-03-20T20:19:07.110Z,0.10
2023-03-20T20:24:21.911Z,0.13
2023-03-20T20:26:54.844Z,0.60
2023-03-20T20:29:27.155Z,0.15
2023-03-20T20:31:54.043Z,0.10
2023-03-20T20:39:54.473Z,0.20
2023-03-20T20:42:21.648Z,0.40
2023-03-20T20:44:49.292Z,0.10
2023-03-20T20:47:16.822Z,0.40
2023-03-20T20:49:46.608Z,0.30
2023-03-20T20:52:14.608Z,0.10
2023-03-20T20:54:42.339Z,0.20
2023-03-20T20:57:12.998Z,0.30
2023-03-20T20:59:41.255Z,0.70
2023-03-20T21:02:13.116Z,0.15
2023-03-20T21:04:43.784Z,0.10
2023-03-20T21:07:12.488Z,0.10
2023-03-20T21:09:40.544Z,2.17
2023-03-20T21:12:10.607Z,0.20
2023-03-20T21:14:37.690Z,0.25
2023-03-20T21:17:06.163Z,0.35
2023-03-20T21:19:36.136Z,0.20
2023-03-20T21:22:03.807Z,0.17
2023-03-20T21:24:33.916Z,0.10
2023-03-20T21:27:12.396Z,0.10
2023-03-20T21:29:40.978Z,0.10
2023-03-20T21:32:09.614Z,0.20
2023-03-20T21:34:38.108Z,0.90
2023-03-20T21:38:04.659Z,1.00
2023-03-20T21:39:53.003Z,0.10
2023-03-20T21:42:20.586Z,0.10
2023-03-20T21:45:39.025Z,0.28
2023-03-20T21:48:28.507Z,0.38
2023-03-20T21:50:49.459Z,0.10
2023-03-20T21:53:58.994Z,1.85
2023-03-20T22:01:58.724Z,0.10
2023-03-20T22:07:52.098Z,0.10
2023-03-20T22:16:03.596Z,0.10
2023-03-20T22:27:35.163Z,0.10
2023-03-20T22:30:00.464Z,0.10
2023-03-20T22:32:47.791Z,0.10
2023-03-20T22:35:38.816Z,0.10
2023-03-20T22:41:36.162Z,0.10
2023-03-20T22:46:22.640Z,0.10
2023-03-20T22:48:49.110Z,0.70
2023-03-20T22:51:16.522Z,4.38
2023-03-20T22:53:44.954Z,0.10
2023-03-20T22:56:12.467Z,0.28
2023-03-20T22:58:39.323Z,0.20
2023-03-20T23:01:07.905Z,0.10
2023-03-20T23:03:41.303Z,0.28
2023-03-20T23:06:24.584Z,0.10
2023-03-20T23:08:56.522Z,0.47
2023-03-20T23:11:25.371Z,0.10
2023-03-20T23:13:52.542Z,0.10
2023-03-20T23:16:19.470Z,4.45
2023-03-20T23:18:46.355Z,0.90
2023-03-20T23:21:13.243Z,0.10
2023-03-20T23:23:40.644Z,0.30
2023-03-20T23:26:20.478Z,0.20
2023-03-20T23:28:48.554Z,0.13
2023-03-20T23:31:24.351Z,0.10
2023-03-20T23:33:57.154Z,0.32
2023-03-20T23:36:36.092Z,1.00
2023-03-20T23:39:08.389Z,0.17
2023-03-20T23:44:22.215Z,0.35
2023-03-20T23:46:49.255Z,0.10
2023-03-20T23:49:16.766Z,0.10
2023-03-20T23:51:43.774Z,0.43
2023-03-20T23:54:11.254Z,0.20
2023-03-20T23:56:38.117Z,0.20
2023-03-20T23:59:15.022Z,0.15
